Eagan, MN (55122)

10:57 PM CDT on October 24, 2014 (GMT -0500)
Eagan Westbury Area | Change Station
CLOSE
Current Station
Personal Weather Station
Location: Saint Paul, MN
Elevation: 879 ft
Nearby Weather Stations

Elev 879 ft 44.82 °N, 93.15 °W | Updated 1 minute ago

Partly Cloudy
Partly Cloudy
60.1 °F
Feels Like 60.1 °F
N
3.0
Wind Variable Wind from SW
Gusts 3.0 mph

Today
High -- | Low -- °F
--% Chance of Precip.
Yesterday
High -- | Low -- °F
Precip. -- in
7:40 AM 6:13 PM
New Moon, 2% visible
Pressure 29.86 in
Visibility 7.0 miles
Clouds Few 25000 ft
Dew Point 52 °F
Humidity 74%
Rainfall 0.00 in
Snow Depth Not available.
UV 0 out of 12
Pollen .90 out of 12
Ozone Good
PM2.5 Moderate
Flu Activity Sporadic
METAR KMSP 250253Z 23003KT 7SM FEW250 15/11 A2986 RMK AO2 SLP111 T01500106 53002

More Conditions Fewer Conditions

Pressure 29.86 in
Visibility 7.0 miles
Clouds Few 25000 ft
Dew Point 52 °F
Humidity 74%
Rainfall 0.00 in
Snow Depth Not available.
UV 0 out of 12
Pollen .90 out of 12
Ozone Good
PM2.5 Moderate
Flu Activity Sporadic
METAR KMSP 250253Z 23003KT 7SM FEW250 15/11 A2986 RMK AO2 SLP111 T01500106 53002

More Conditions Fewer Conditions

Nowcast | as of 9:19 PM CDT on October 24, 2014

Areas of fog...will continue to plague all of west central Wisconsin and extreme east central Minnesota...prior to midnight. Visibilities in the one to Three Mile range will be common...with some areas as low as a few hundred feet. Drier air will slowly March into the region after midnight...eliminating much of the fog threat by 1 am. Drivers should allow plenty of room between vehicles...and curb their speed while using low beam headlights.

×

10-Day Weather Forecast

Almanac

Astronomy

Oct. 24, 2014 Rise Set
Actual Time 7:40 AM CDT 6:13 PM CDT
Civil Twilight 7:10 AM CDT 6:43 PM CDT
Nautical Twilight 6:35 AM CDT 7:17 PM CDT
Astronomical Twilight 6:02 AM CDT 7:51 PM CDT
Moon 8:21 AM CDT (10/24) 6:51 PM CDT (10/24)
Length of Visible Light 11h 32m
Length of Day
10h 33m
Tomorrow will be 2m 54s shorter.
New Moon, 2% of the Moon is Illuminated
Today
New Moon
Oct 30
First Quarter
Nov 6
Full
Nov 14
Last Quarter
Nov 22
New

Today's Extremes

State Highs State Lows

Community

WunderPhotos

Upload Photos

1,764,772 photos uploaded!

Nearby

Air Quality

  Air Quality AQ Index Pollutant
Yesterday Good
PM2.5
Yesterday Good
OZONE
Current Moderate
PM2.5
Current Good
OZONE
Friday Good
PM2.5
Saturday Good
PM2.5
Sunday Moderate
PM2.5
Monday Good
PM2.5
Tuesday Good
PM2.5
Wednesday Good
PM2.5

Snow Depth

Station Depth Elevation
No new snow has been reported.

Earthquake Activity

City Distance Mag. Time & Date
No recent earthquake activity has been reported nearby.
Minimum magnitude displayed is 2.5.

Coastal Water Temperatures

Place Temperature
No Stations Reporting

Nearby Weather Stations